createdAt,value
2019-03-24T11:37:29.964Z,47.90
2019-03-24T11:39:58.559Z,47.80
2019-03-24T11:42:27.146Z,49.30
2019-03-24T11:44:55.731Z,48.60
2019-03-24T11:47:26.799Z,46.80
2019-03-24T11:49:54.531Z,46.80
2019-03-24T11:52:23.089Z,45.50
2019-03-24T11:54:51.682Z,44.80
2019-03-24T11:57:20.301Z,45.30
2019-03-24T11:59:48.859Z,44.50
2019-03-24T12:02:17.448Z,45.90
2019-03-24T12:04:46.028Z,46.30
2019-03-24T12:07:14.655Z,45.80
2019-03-24T12:09:43.304Z,47.10
2019-03-24T12:12:11.877Z,47.40
2019-03-24T12:14:40.481Z,48.90
2019-03-24T12:17:09.093Z,47.00
2019-03-24T12:19:37.670Z,47.40
2019-03-24T12:22:06.336Z,47.30
2019-03-24T12:24:34.929Z,49.00
2019-03-24T12:27:03.471Z,49.90
2019-03-24T12:29:32.076Z,52.60
2019-03-24T12:32:00.639Z,50.60
2019-03-24T12:34:29.215Z,49.80
2019-03-24T12:36:57.766Z,50.40
2019-03-24T12:39:26.375Z,51.80
2019-03-24T12:41:54.939Z,49.90
2019-03-24T12:44:23.610Z,51.80
2019-03-24T12:46:52.319Z,49.10
2019-03-24T12:49:20.880Z,47.80
2019-03-24T12:51:49.465Z,48.40
2019-03-24T12:54:18.049Z,48.80
2019-03-24T12:56:46.643Z,46.30
2019-03-24T12:59:15.303Z,45.20
2019-03-24T13:01:43.875Z,45.60
2019-03-24T13:04:12.429Z,45.30
2019-03-24T13:06:41.003Z,46.20
2019-03-24T13:09:09.563Z,45.80
2019-03-24T13:11:38.349Z,43.60
2019-03-24T13:14:07.146Z,45.30
2019-03-24T13:16:35.771Z,47.30
2019-03-24T13:19:04.474Z,48.70
2019-03-24T13:21:33.060Z,48.90
2019-03-24T13:24:01.631Z,46.50
2019-03-24T13:26:30.212Z,47.80
2019-03-24T13:28:58.967Z,47.20
2019-03-24T13:31:27.603Z,48.50
2019-03-24T13:33:56.167Z,47.30
2019-03-24T13:36:24.791Z,46.40
2019-03-24T13:38:53.422Z,47.20
2019-03-24T13:41:22.135Z,46.70
2019-03-24T13:43:50.796Z,46.70
2019-03-24T13:46:19.411Z,48.00
2019-03-24T13:48:47.956Z,48.30
2019-03-24T13:51:16.731Z,47.40
2019-03-24T13:53:45.303Z,46.00
2019-03-24T13:56:13.889Z,46.90
2019-03-24T13:58:42.487Z,47.70
2019-03-24T14:01:11.880Z,47.40
2019-03-24T14:03:40.444Z,48.90
2019-03-24T14:06:09.048Z,49.90
2019-03-24T14:08:37.647Z,49.60
2019-03-24T14:11:06.388Z,49.30
2019-03-24T14:13:34.948Z,50.80
2019-03-24T14:16:03.686Z,51.80
2019-03-24T14:18:32.381Z,49.80
2019-03-24T14:21:01.084Z,49.90
2019-03-24T14:23:29.715Z,50.60
2019-03-24T14:25:58.276Z,48.60
2019-03-24T14:28:26.858Z,48.70
2019-03-24T14:30:55.469Z,48.30
2019-03-24T14:33:24.129Z,48.60
2019-03-24T14:35:52.699Z,49.40
2019-03-24T14:38:21.355Z,49.40
2019-03-24T14:40:49.942Z,50.40
2019-03-24T14:43:18.530Z,50.00
2019-03-24T14:45:47.091Z,50.20
2019-03-24T14:48:15.814Z,51.00
2019-03-24T14:50:53.965Z,50.60
2019-03-24T14:53:14.833Z,52.30
2019-03-24T14:55:43.391Z,51.50
2019-03-24T14:58:12.078Z,50.40
2019-03-24T15:00:42.184Z,51.50
2019-03-24T15:03:11.103Z,51.50
2019-03-24T15:05:39.759Z,52.80
2019-03-24T15:08:08.713Z,52.80
2019-03-24T15:10:37.618Z,52.10
2019-03-24T15:13:06.333Z,52.10
2019-03-24T15:15:34.963Z,51.90
2019-03-24T15:18:03.547Z,50.00
2019-03-24T15:20:32.147Z,49.30
2019-03-24T15:23:00.739Z,49.80
2019-03-24T15:25:29.296Z,50.40
2019-03-24T15:27:57.897Z,49.40
2019-03-24T15:30:26.536Z,49.40
2019-03-24T15:32:55.119Z,49.50
2019-03-24T15:35:23.751Z,50.40
2019-03-24T15:37:52.429Z,51.80
2019-03-24T15:40:20.983Z,52.30
2019-03-24T15:42:49.570Z,53.10
2019-03-24T15:45:18.260Z,53.10
2019-03-24T15:47:46.912Z,53.70
2019-03-24T15:50:15.536Z,54.50
2019-03-24T15:52:44.119Z,55.30
2019-03-24T15:55:12.828Z,56.10
2019-03-24T15:57:41.408Z,57.10
2019-03-24T16:00:11.379Z,56.80
2019-03-24T16:02:40.295Z,56.50
2019-03-24T16:05:08.891Z,56.80
2019-03-24T16:07:37.548Z,57.40
2019-03-24T16:10:07.568Z,57.90
2019-03-24T16:12:36.276Z,58.40
2019-03-24T16:15:07.065Z,59.90
2019-03-24T16:17:35.626Z,60.50
2019-03-24T16:20:09.760Z,61.20
2019-03-24T16:22:36.721Z,63.80
2019-03-24T16:25:07.442Z,67.40
2019-03-24T16:27:36.106Z,70.10
2019-03-24T16:30:06.540Z,73.20
2019-03-24T16:32:35.115Z,75.60
2019-03-24T16:35:04.448Z,77.30
2019-03-24T16:37:33.019Z,79.50
2019-03-24T16:40:01.613Z,81.00
2019-03-24T16:42:30.248Z,83.60
2019-03-24T16:44:58.828Z,84.40
2019-03-24T16:47:27.392Z,86.70
2019-03-24T16:49:55.979Z,88.00
2019-03-24T16:52:24.547Z,89.50
2019-03-24T16:54:53.165Z,90.00
2019-03-24T16:57:21.711Z,90.70
2019-03-24T16:59:50.233Z,91.30
2019-03-24T17:02:18.782Z,91.80
2019-03-24T17:04:47.463Z,92.10
2019-03-24T17:07:17.675Z,92.40
2019-03-24T17:09:46.529Z,92.80
2019-03-24T17:12:16.934Z,93.30
2019-03-24T17:14:45.483Z,93.60
2019-03-24T17:17:14.116Z,93.90
2019-03-24T17:19:42.691Z,94.10
2019-03-24T17:22:11.252Z,94.60
2019-03-24T17:24:39.854Z,95.00
2019-03-24T17:27:08.395Z,95.10
2019-03-24T17:29:37.128Z,95.30
2019-03-24T17:32:05.773Z,95.80
2019-03-24T17:34:34.347Z,95.90
2019-03-24T17:37:02.907Z,95.90
2019-03-24T17:39:31.566Z,96.10
2019-03-24T17:42:00.133Z,96.30
2019-03-24T17:44:28.791Z,95.70
2019-03-24T17:46:57.352Z,95.20
2019-03-24T17:49:25.938Z,94.80
2019-03-24T17:52:00.583Z,94.70
2019-03-24T17:54:24.783Z,94.80
2019-03-24T17:56:53.355Z,95.10
2019-03-24T17:59:21.919Z,95.20
2019-03-24T18:01:50.502Z,95.60
2019-03-24T18:04:24.611Z,95.40
2019-03-24T18:06:49.291Z,95.80
2019-03-24T18:09:17.851Z,96.10
2019-03-24T18:11:46.431Z,96.30
2019-03-24T18:14:15.093Z,96.40
2019-03-24T18:16:43.693Z,96.80
2019-03-24T18:19:12.320Z,97.20
2019-03-24T18:21:40.916Z,97.80
2019-03-24T18:24:09.469Z,98.20
2019-03-24T18:26:38.056Z,98.40
2019-03-24T18:29:06.610Z,98.50
2019-03-24T18:31:35.239Z,99.00
2019-03-24T18:34:03.927Z,99.30
2019-03-24T18:36:32.603Z,99.60
2019-03-24T18:39:01.163Z,99.70
2019-03-24T18:41:29.758Z,99.90
2019-03-24T18:43:58.367Z,99.90
2019-03-24T18:46:26.970Z,99.90
2019-03-24T18:48:55.600Z,99.90
2019-03-24T18:51:24.179Z,99.90
2019-03-24T18:53:52.813Z,99.90
2019-03-24T18:56:21.500Z,99.90
2019-03-24T18:58:50.062Z,99.90
2019-03-24T19:01:18.744Z,99.90
2019-03-24T19:03:47.330Z,99.90
2019-03-24T19:06:15.895Z,99.90
2019-03-24T19:08:44.504Z,99.90
2019-03-24T19:11:13.080Z,99.90
2019-03-24T19:13:41.663Z,99.90
2019-03-24T19:16:10.247Z,99.90
2019-03-24T19:18:38.807Z,99.90
2019-03-24T19:21:07.431Z,99.90
2019-03-24T19:23:36.049Z,99.90
2019-03-24T19:26:04.708Z,99.90
2019-03-24T19:28:33.284Z,99.90
2019-03-24T19:31:01.966Z,99.90
2019-03-24T19:33:30.593Z,99.90
2019-03-24T19:35:59.381Z,99.90
2019-03-24T19:38:28.684Z,99.90
2019-03-24T19:40:57.329Z,99.90
2019-03-24T19:43:25.935Z,99.90
2019-03-24T19:45:54.504Z,99.90
2019-03-24T19:48:23.103Z,99.90
2019-03-24T19:50:51.670Z,99.90
2019-03-24T19:53:20.319Z,99.90
2019-03-24T19:55:48.916Z,99.90
2019-03-24T19:58:17.460Z,99.90
2019-03-24T20:00:46.028Z,99.90
2019-03-24T20:03:14.701Z,99.90
2019-03-24T20:05:43.405Z,99.90
2019-03-24T20:08:12.067Z,99.90
2019-03-24T20:10:40.716Z,99.90
2019-03-24T20:13:09.489Z,99.90
2019-03-24T20:15:38.061Z,99.90
2019-03-24T20:18:06.708Z,99.90
2019-03-24T20:20:35.345Z,99.90
2019-03-24T20:23:04.063Z,99.90
2019-03-24T20:25:32.596Z,99.90
2019-03-24T20:28:01.304Z,99.90
2019-03-24T20:30:29.979Z,99.90
2019-03-24T20:32:58.754Z,99.90
2019-03-24T20:35:27.459Z,99.90
2019-03-24T20:37:56.155Z,99.90
2019-03-24T20:40:24.741Z,99.90
2019-03-24T20:42:53.427Z,99.90
2019-03-24T20:45:22.005Z,99.90
2019-03-24T20:47:50.667Z,99.90
2019-03-24T20:50:19.388Z,99.90
2019-03-24T20:52:47.978Z,99.90
2019-03-24T20:55:16.615Z,99.90
2019-03-24T20:57:45.196Z,99.90
2019-03-24T21:00:15.091Z,99.90
2019-03-24T21:02:43.667Z,99.90
2019-03-24T21:05:12.316Z,99.90
2019-03-24T21:07:40.992Z,99.90
2019-03-24T21:10:09.695Z,99.90
2019-03-24T21:12:38.330Z,99.90
2019-03-24T21:15:07.922Z,99.90
2019-03-24T21:17:36.584Z,99.90
2019-03-24T21:20:07.772Z,99.90
2019-03-24T21:22:36.395Z,99.90
2019-03-24T21:25:06.712Z,99.90
2019-03-24T21:27:35.267Z,99.90
2019-03-24T21:30:05.863Z,99.90
2019-03-24T21:32:34.419Z,99.90
2019-03-24T21:35:03.064Z,99.90
2019-03-24T21:37:31.699Z,99.90
2019-03-24T21:40:00.343Z,99.90
2019-03-24T21:42:28.963Z,99.90
2019-03-24T21:44:57.531Z,99.90
2019-03-24T21:47:26.087Z,99.90
2019-03-24T21:49:54.712Z,99.90
2019-03-24T21:52:23.285Z,99.90
2019-03-24T21:54:51.859Z,99.90
2019-03-24T21:57:20.417Z,99.90
2019-03-24T21:59:49.003Z,99.90
2019-03-24T22:02:17.609Z,99.90
2019-03-24T22:04:46.238Z,99.90
2019-03-24T22:07:14.858Z,99.90
2019-03-24T22:09:43.436Z,99.90
2019-03-24T22:12:12.028Z,99.90
2019-03-24T22:14:40.615Z,99.90
2019-03-24T22:17:09.384Z,99.90
2019-03-24T22:19:38.774Z,99.90
2019-03-24T22:22:07.455Z,99.90
2019-03-24T22:24:36.041Z,99.90
2019-03-24T22:27:04.663Z,99.90
2019-03-24T22:29:33.230Z,99.90
2019-03-24T22:32:01.827Z,99.90
2019-03-24T22:34:30.417Z,99.90
2019-03-24T22:36:59.002Z,99.90
2019-03-24T22:39:27.750Z,99.90
2019-03-24T22:41:56.297Z,99.90
2019-03-24T22:44:24.947Z,99.90
2019-03-24T22:46:53.573Z,99.90
2019-03-24T22:49:22.253Z,99.90
2019-03-24T22:51:50.805Z,99.90
2019-03-24T22:54:19.384Z,99.90
2019-03-24T22:56:48.048Z,99.90
2019-03-24T22:59:16.579Z,99.90
2019-03-24T23:01:45.239Z,99.90
2019-03-24T23:04:13.828Z,99.90
2019-03-24T23:06:42.499Z,99.90
2019-03-24T23:09:11.419Z,99.90
2019-03-24T23:11:40.047Z,99.90
2019-03-24T23:14:08.627Z,99.90
2019-03-24T23:16:37.191Z,99.90
2019-03-24T23:19:05.839Z,99.90
2019-03-24T23:21:34.471Z,99.90
2019-03-24T23:24:14.617Z,99.90
2019-03-24T23:26:34.966Z,99.90
2019-03-24T23:29:03.608Z,99.90
2019-03-24T23:31:34.132Z,99.90
2019-03-24T23:34:02.752Z,99.90
2019-03-24T23:36:31.415Z,99.90
2019-03-24T23:38:59.967Z,99.90
2019-03-24T23:41:28.596Z,99.90
2019-03-24T23:43:57.156Z,99.90
2019-03-24T23:46:25.736Z,99.90
2019-03-24T23:48:54.288Z,99.90
2019-03-24T23:51:22.865Z,99.90
2019-03-24T23:53:51.435Z,99.90
2019-03-24T23:56:20.016Z,99.90
2019-03-24T23:58:48.580Z,99.90
